Time;durP1;ratioP1;P1;durP2;ratioP2;P2;SDS_P1;SDS_P2;PMS_P1;PMS_P2;Temp;Humidity;BMP_temperature;BMP_pressure;BME280_temperature;BME280_humidity;BME280_pressure;Samples;Min_cycle;Max_cycle;Signal;HPM_P1;HPM_P2
2021/09/16 00:00:11;;;;;;;19.65;13.55;;;;;;;;;;4953320;28;20113;-76
2021/09/16 00:02:41;;;;;;;21.88;13.80;;;;;;;;;;4953317;28;20035;-76
2021/09/16 00:05:08;;;;;;;16.50;13.57;;;;;;;;;;4953331;28;20449;-76
2021/09/16 00:07:33;;;;;;;25.13;16.05;;;;;;;;;;4954617;28;20062;-76
2021/09/16 00:09:59;;;;;;;20.02;14.93;;;;;;;;;;4937055;29;20477;-75
2021/09/16 00:12:24;;;;;;;17.75;12.82;;;;;;;;;;4953655;28;20366;-76
2021/09/16 00:14:49;;;;;;;20.55;14.65;;;;;;;;;;4953144;29;20039;-76
2021/09/16 00:17:15;;;;;;;21.50;16.20;;;;;;;;;;4954396;28;20038;-76
2021/09/16 00:19:41;;;;;;;17.08;13.82;;;;;;;;;;4954222;28;20031;-76
2021/09/16 00:22:06;;;;;;;19.58;13.95;;;;;;;;;;4953316;28;20043;-76
2021/09/16 00:24:32;;;;;;;17.45;12.98;;;;;;;;;;4954300;28;20378;-76
2021/09/16 00:26:57;;;;;;;20.63;14.63;;;;;;;;;;4954222;29;20114;-76
2021/09/16 00:29:22;;;;;;;22.35;16.25;;;;;;;;;;4954056;28;20035;-76
2021/09/16 00:31:48;;;;;;;21.17;15.63;;;;;;;;;;4918398;29;1041920;-76
2021/09/16 00:34:13;;;;;;;20.75;14.40;;;;;;;;;;4954810;29;20046;-76
2021/09/16 00:36:39;;;;;;;21.23;14.32;;;;;;;;;;4955011;29;20043;-76
2021/09/16 00:39:05;;;;;;;17.70;13.30;;;;;;;;;;4954622;28;20039;-76
2021/09/16 00:41:31;;;;;;;22.23;17.35;;;;;;;;;;4954523;28;20023;-76
2021/09/16 00:43:57;;;;;;;18.88;15.65;;;;;;;;;;4953541;29;20039;-76
2021/09/16 00:46:23;;;;;;;28.92;14.95;;;;;;;;;;4954639;28;20043;-76
2021/09/16 00:48:48;;;;;;;22.80;16.23;;;;;;;;;;4954821;28;20049;-76
2021/09/16 00:51:14;;;;;;;18.25;13.13;;;;;;;;;;4954490;28;20134;-75
2021/09/16 00:53:40;;;;;;;24.73;13.95;;;;;;;;;;4954862;28;20100;-76
2021/09/16 00:56:07;;;;;;;18.83;14.35;;;;;;;;;;4954739;28;20062;-76
2021/09/16 00:58:37;;;;;;;24.38;15.45;;;;;;;;;;4954689;28;20035;-76
2021/09/16 01:01:03;;;;;;;20.75;15.70;;;;;;;;;;4954401;28;20449;-76
2021/09/16 01:03:28;;;;;;;18.63;13.75;;;;;;;;;;4954661;28;20093;-76
2021/09/16 01:05:54;;;;;;;20.15;14.05;;;;;;;;;;4954706;28;20051;-76
2021/09/16 01:08:19;;;;;;;23.23;13.75;;;;;;;;;;4954586;28;20101;-76
2021/09/16 01:10:45;;;;;;;17.20;13.20;;;;;;;;;;4954501;28;20045;-76
2021/09/16 01:13:11;;;;;;;19.90;14.52;;;;;;;;;;4954629;28;20039;-76
2021/09/16 01:15:37;;;;;;;19.75;14.27;;;;;;;;;;4954512;28;20031;-76
2021/09/16 01:18:03;;;;;;;16.85;13.13;;;;;;;;;;4954519;28;20049;-76
2021/09/16 01:20:29;;;;;;;18.13;11.88;;;;;;;;;;4953601;28;20500;-76
2021/09/16 01:22:54;;;;;;;16.13;11.70;;;;;;;;;;4954535;28;20039;-76
2021/09/16 01:25:24;;;;;;;22.30;13.15;;;;;;;;;;4954599;28;20051;-76
2021/09/16 01:27:52;;;;;;;21.00;13.80;;;;;;;;;;4954154;28;20118;-76
2021/09/16 01:30:17;;;;;;;16.15;12.75;;;;;;;;;;4954266;28;20039;-75
2021/09/16 01:32:43;;;;;;;16.02;10.57;;;;;;;;;;4955426;28;20055;-76
2021/09/16 01:35:08;;;;;;;18.70;11.38;;;;;;;;;;4956654;29;20412;-76
2021/09/16 01:37:34;;;;;;;16.33;10.27;;;;;;;;;;4957929;28;20043;-76
2021/09/16 01:39:59;;;;;;;15.30;10.38;;;;;;;;;;4957188;28;20042;-76
2021/09/16 01:42:25;;;;;;;15.13;10.13;;;;;;;;;;4957533;28;20031;-75
2021/09/16 01:44:50;;;;;;;18.98;10.85;;;;;;;;;;4956577;29;20035;-75
2021/09/16 01:47:15;;;;;;;18.58;11.30;;;;;;;;;;4957760;28;20043;-75
2021/09/16 01:49:41;;;;;;;18.77;9.43;;;;;;;;;;4956183;28;20040;-76
2021/09/16 01:52:06;;;;;;;16.17;9.65;;;;;;;;;;4957482;29;20043;-76
2021/09/16 01:54:32;;;;;;;14.52;9.80;;;;;;;;;;4957476;29;20046;-76
2021/09/16 01:56:57;;;;;;;13.63;9.20;;;;;;;;;;4956288;28;20412;-76
2021/09/16 01:59:23;;;;;;;13.35;9.02;;;;;;;;;;4957353;28;20049;-76
2021/09/16 02:01:48;;;;;;;19.35;9.05;;;;;;;;;;4957476;28;20035;-76
2021/09/16 02:04:13;;;;;;;12.30;8.40;;;;;;;;;;4957291;28;20078;-75
2021/09/16 02:06:39;;;;;;;14.63;9.68;;;;;;;;;;4957335;28;20050;-76
2021/09/16 02:09:04;;;;;;;14.32;8.60;;;;;;;;;;4957081;28;20086;-76
2021/09/16 02:11:30;;;;;;;13.48;8.20;;;;;;;;;;4957126;28;20039;-76
2021/09/16 02:13:58;;;;;;;14.07;7.75;;;;;;;;;;4957335;28;20039;-76
2021/09/16 02:16:23;;;;;;;12.80;7.47;;;;;;;;;;4956457;28;20042;-76
2021/09/16 02:18:48;;;;;;;14.85;7.38;;;;;;;;;;4957106;28;20047;-76
2021/09/16 02:21:14;;;;;;;8.38;6.65;;;;;;;;;;4956909;28;20094;-76
2021/09/16 02:23:39;;;;;;;9.90;6.78;;;;;;;;;;4956989;28;20054;-76
2021/09/16 02:26:04;;;;;;;9.98;6.95;;;;;;;;;;4955981;29;20042;-76
2021/09/16 02:28:30;;;;;;;18.33;6.90;;;;;;;;;;4955841;28;20505;-76
2021/09/16 02:30:55;;;;;;;12.38;6.25;;;;;;;;;;4956561;28;20114;-76
2021/09/16 02:33:21;;;;;;;17.67;7.43;;;;;;;;;;4956769;28;20043;-76
2021/09/16 02:35:52;;;;;;;11.30;6.30;;;;;;;;;;4956610;29;20049;-76
2021/09/16 02:38:19;;;;;;;11.07;6.85;;;;;;;;;;4956117;28;20105;-76
2021/09/16 02:40:44;;;;;;;10.60;5.50;;;;;;;;;;4956669;28;20050;-76
2021/09/16 02:43:09;;;;;;;12.45;5.03;;;;;;;;;;4955357;28;20046;-76
2021/09/16 02:45:35;;;;;;;12.55;4.30;;;;;;;;;;4955817;28;20043;-76
2021/09/16 02:48:00;;;;;;;14.05;3.65;;;;;;;;;;4956416;29;20047;-76
2021/09/16 02:50:25;;;;;;;11.40;4.20;;;;;;;;;;4955289;28;20035;-76
2021/09/16 02:52:51;;;;;;;7.40;3.78;;;;;;;;;;4956224;28;20425;-76
2021/09/16 02:55:18;;;;;;;4.72;2.65;;;;;;;;;;4956379;28;20043;-76
2021/09/16 02:57:44;;;;;;;8.90;3.28;;;;;;;;;;4955361;28;20513;-77
2021/09/16 03:00:10;;;;;;;6.10;2.05;;;;;;;;;;4956384;28;20035;-76
2021/09/16 03:02:35;;;;;;;7.32;2.13;;;;;;;;;;4956098;28;20039;-76
2021/09/16 03:05:00;;;;;;;5.88;1.75;;;;;;;;;;4956252;28;20035;-76
2021/09/16 03:07:26;;;;;;;7.65;2.53;;;;;;;;;;4955649;28;20046;-76
2021/09/16 03:09:51;;;;;;;6.93;1.50;;;;;;;;;;4956104;28;20031;-76
2021/09/16 03:12:17;;;;;;;2.10;1.40;;;;;;;;;;4955178;29;20043;-76
2021/09/16 03:14:42;;;;;;;7.78;1.95;;;;;;;;;;4956038;29;20118;-76
2021/09/16 03:17:07;;;;;;;6.57;1.70;;;;;;;;;;4956003;29;20460;-75
2021/09/16 03:19:33;;;;;;;4.68;1.48;;;;;;;;;;4955846;28;20583;-76
2021/09/16 03:21:58;;;;;;;4.28;1.48;;;;;;;;;;4955843;29;20046;-75
2021/09/16 03:24:23;;;;;;;4.68;1.27;;;;;;;;;;4955857;29;20062;-76
2021/09/16 03:26:49;;;;;;;4.43;1.85;;;;;;;;;;4955826;29;20043;-76
2021/09/16 03:29:14;;;;;;;6.60;1.65;;;;;;;;;;4954528;28;20043;-76
2021/09/16 03:31:40;;;;;;;7.00;1.40;;;;;;;;;;4955211;28;20039;-76
2021/09/16 03:34:05;;;;;;;4.90;1.30;;;;;;;;;;4955804;28;20078;-76
2021/09/16 03:36:31;;;;;;;3.60;1.10;;;;;;;;;;4955679;28;20380;-76
2021/09/16 03:38:56;;;;;;;3.55;1.25;;;;;;;;;;4955410;28;20552;-76
2021/09/16 03:41:21;;;;;;;3.15;1.20;;;;;;;;;;4955047;28;20035;-76
2021/09/16 03:43:47;;;;;;;4.05;1.13;;;;;;;;;;4955639;29;20050;-76
2021/09/16 03:46:12;;;;;;;4.72;1.52;;;;;;;;;;4955582;29;20086;-76
2021/09/16 03:48:37;;;;;;;3.95;1.13;;;;;;;;;;4954290;29;20035;-76
2021/09/16 03:51:03;;;;;;;5.63;1.60;;;;;;;;;;4955152;28;20081;-76
2021/09/16 03:53:28;;;;;;;2.80;1.35;;;;;;;;;;4955459;29;20043;-76
2021/09/16 03:55:53;;;;;;;5.30;1.40;;;;;;;;;;4955362;29;20043;-76
2021/09/16 03:58:19;;;;;;;5.47;1.45;;;;;;;;;;4955397;29;20039;-76
2021/09/16 04:00:44;;;;;;;2.78;1.25;;;;;;;;;;4955400;28;20043;-76
2021/09/16 04:03:11;;;;;;;11.30;3.00;;;;;;;;;;4954203;29;20039;-76
2021/09/16 04:05:39;;;;;;;5.00;1.38;;;;;;;;;;4955072;28;20486;-76
2021/09/16 04:08:05;;;;;;;4.35;1.40;;;;;;;;;;4955172;28;20425;-76
2021/09/16 04:10:31;;;;;;;10.27;1.42;;;;;;;;;;4954715;28;20463;-76
2021/09/16 04:12:56;;;;;;;4.15;1.50;;;;;;;;;;4955233;28;20498;-76
2021/09/16 04:15:22;;;;;;;2.30;1.10;;;;;;;;;;4955144;29;20059;-75
2021/09/16 04:17:47;;;;;;;3.25;1.30;;;;;;;;;;4955195;28;20520;-76
2021/09/16 04:20:13;;;;;;;4.65;1.60;;;;;;;;;;4954889;28;20047;-76
2021/09/16 04:22:40;;;;;;;3.78;1.20;;;;;;;;;;4955204;28;20152;-76
2021/09/16 04:25:06;;;;;;;4.35;1.52;;;;;;;;;;4955177;28;20331;-76
2021/09/16 04:27:32;;;;;;;4.88;1.63;;;;;;;;;;4955028;28;20043;-76
2021/09/16 04:29:57;;;;;;;6.22;1.38;;;;;;;;;;4955002;28;20035;-76
2021/09/16 04:32:23;;;;;;;5.63;1.50;;;;;;;;;;4954722;28;20102;-76
2021/09/16 04:34:48;;;;;;;4.50;1.20;;;;;;;;;;4954642;28;20045;-76
2021/09/16 04:37:14;;;;;;;3.75;1.20;;;;;;;;;;4954933;29;20043;-76
2021/09/16 04:39:39;;;;;;;2.72;1.20;;;;;;;;;;4953090;28;20039;-76
2021/09/16 04:42:06;;;;;;;4.97;1.30;;;;;;;;;;4955036;28;20031;-76
2021/09/16 04:44:32;;;;;;;7.70;1.25;;;;;;;;;;4954858;28;20047;-76
2021/09/16 04:46:58;;;;;;;4.60;1.40;;;;;;;;;;4955018;28;20074;-76
2021/09/16 04:49:23;;;;;;;2.90;1.00;;;;;;;;;;4954688;28;20062;-75
2021/09/16 04:51:48;;;;;;;3.85;1.27;;;;;;;;;;4953642;29;20477;-76
2021/09/16 04:54:14;;;;;;;4.22;1.65;;;;;;;;;;4953729;29;20465;-76
2021/09/16 04:56:39;;;;;;;4.38;1.25;;;;;;;;;;4954793;28;20046;-76
2021/09/16 04:59:05;;;;;;;4.00;1.25;;;;;;;;;;4954754;28;20155;-76
2021/09/16 05:01:30;;;;;;;5.47;1.25;;;;;;;;;;4954748;29;20046;-76
2021/09/16 05:03:56;;;;;;;9.93;1.30;;;;;;;;;;4954751;28;20043;-76
2021/09/16 05:06:21;;;;;;;5.18;1.85;;;;;;;;;;4954936;28;20062;-76
2021/09/16 05:08:46;;;;;;;5.28;1.25;;;;;;;;;;4957487;28;20035;-76
2021/09/16 05:11:13;;;;;;;5.75;1.27;;;;;;;;;;4957684;28;20043;-76
2021/09/16 05:13:38;;;;;;;3.65;1.05;;;;;;;;;;4958264;28;20043;-75
2021/09/16 05:16:04;;;;;;;4.43;1.23;;;;;;;;;;4957190;28;20071;-76
2021/09/16 05:18:29;;;;;;;4.22;1.17;;;;;;;;;;4958158;28;20043;-76
2021/09/16 05:20:55;;;;;;;3.90;1.65;;;;;;;;;;4958061;28;20038;-76
2021/09/16 05:23:20;;;;;;;6.82;1.73;;;;;;;;;;4958216;28;20121;-76
2021/09/16 05:25:46;;;;;;;6.25;1.33;;;;;;;;;;4958070;28;20043;-76
2021/09/16 05:28:11;;;;;;;5.55;1.20;;;;;;;;;;4956991;28;20042;-76
2021/09/16 05:30:37;;;;;;;5.32;1.45;;;;;;;;;;4957615;28;20075;-76
2021/09/16 05:33:07;;;;;;;7.75;1.40;;;;;;;;;;4957640;28;20093;-76
2021/09/16 05:35:34;;;;;;;2.97;1.05;;;;;;;;;;4956718;29;20043;-76
2021/09/16 05:37:59;;;;;;;2.00;0.85;;;;;;;;;;4956209;28;20178;-76
2021/09/16 05:40:25;;;;;;;6.75;1.35;;;;;;;;;;4957650;28;20118;-76
2021/09/16 05:42:51;;;;;;;8.38;1.23;;;;;;;;;;4957821;28;20442;-76
2021/09/16 05:45:16;;;;;;;5.32;1.20;;;;;;;;;;4957614;28;20121;-76
2021/09/16 05:47:41;;;;;;;5.97;1.45;;;;;;;;;;4956465;29;20027;-76
2021/09/16 05:50:07;;;;;;;2.58;1.10;;;;;;;;;;4957056;28;20126;-76
2021/09/16 05:52:33;;;;;;;5.57;1.30;;;;;;;;;;4957000;28;20040;-76
2021/09/16 05:54:58;;;;;;;5.18;1.13;;;;;;;;;;4956555;28;20042;-76
2021/09/16 05:57:24;;;;;;;4.28;1.58;;;;;;;;;;4957265;29;20768;-76
2021/09/16 05:59:49;;;;;;;3.30;1.05;;;;;;;;;;4956122;28;20047;-76
2021/09/16 06:02:14;;;;;;;6.60;0.98;;;;;;;;;;4956113;29;20039;-76
2021/09/16 06:04:40;;;;;;;7.50;1.40;;;;;;;;;;4940198;29;20131;-76
2021/09/16 06:07:05;;;;;;;7.18;1.15;;;;;;;;;;4956139;29;20133;-76
2021/09/16 06:09:34;;;;;;;5.25;1.27;;;;;;;;;;4957241;28;20039;-76
2021/09/16 06:12:02;;;;;;;4.43;1.40;;;;;;;;;;4956157;29;20449;-76
2021/09/16 06:14:27;;;;;;;8.60;1.27;;;;;;;;;;4957183;28;20035;-76
2021/09/16 06:16:52;;;;;;;3.45;1.00;;;;;;;;;;4955878;28;20113;-76
2021/09/16 06:19:18;;;;;;;4.63;1.10;;;;;;;;;;4957014;28;20129;-76
2021/09/16 06:21:44;;;;;;;2.97;1.35;;;;;;;;;;4956658;28;20171;-76
2021/09/16 06:24:09;;;;;;;2.75;1.00;;;;;;;;;;4956041;29;20104;-76
2021/09/16 06:26:35;;;;;;;5.45;1.02;;;;;;;;;;4957058;28;20040;-76
2021/09/16 06:29:00;;;;;;;5.05;0.95;;;;;;;;;;4955557;28;20031;-76
2021/09/16 06:31:26;;;;;;;3.28;0.80;;;;;;;;;;4956381;28;20039;-77
2021/09/16 06:33:51;;;;;;;5.20;1.30;;;;;;;;;;4956688;29;20043;-76
2021/09/16 06:36:17;;;;;;;7.90;1.50;;;;;;;;;;4956932;29;20046;-76
2021/09/16 06:38:42;;;;;;;2.25;0.70;;;;;;;;;;4955605;29;20046;-76
2021/09/16 06:41:07;;;;;;;8.40;1.17;;;;;;;;;;4956018;28;20046;-76
2021/09/16 06:43:33;;;;;;;7.97;1.63;;;;;;;;;;4956701;28;20053;-76
2021/09/16 06:45:59;;;;;;;7.93;1.15;;;;;;;;;;4939387;28;20126;-76
2021/09/16 06:48:24;;;;;;;3.58;0.73;;;;;;;;;;4956574;29;20070;-76
2021/09/16 06:50:49;;;;;;;1.08;0.85;;;;;;;;;;4956428;28;20141;-76
2021/09/16 06:53:15;;;;;;;4.55;0.90;;;;;;;;;;4955478;29;20512;-76
2021/09/16 06:55:40;;;;;;;7.00;1.13;;;;;;;;;;4956350;29;20035;-76
2021/09/16 06:58:06;;;;;;;2.08;1.00;;;;;;;;;;4956416;28;20039;-76
2021/09/16 07:00:31;;;;;;;3.50;0.93;;;;;;;;;;4955044;28;20071;-76
2021/09/16 07:02:57;;;;;;;3.50;0.98;;;;;;;;;;4955145;28;20149;-76
2021/09/16 07:05:22;;;;;;;3.85;0.85;;;;;;;;;;4955243;29;20043;-76
2021/09/16 07:07:47;;;;;;;4.82;1.33;;;;;;;;;;4956288;28;20046;-76
2021/09/16 07:10:13;;;;;;;0.85;0.70;;;;;;;;;;4955007;28;20058;-76
2021/09/16 07:12:38;;;;;;;3.33;1.00;;;;;;;;;;4955973;29;20070;-76
2021/09/16 07:15:05;;;;;;;3.65;1.30;;;;;;;;;;4955421;28;20126;-76
2021/09/16 07:17:30;;;;;;;7.07;1.13;;;;;;;;;;4956175;28;20189;-76
2021/09/16 07:19:55;;;;;;;6.03;1.63;;;;;;;;;;4955917;28;20524;-76
2021/09/16 07:22:22;;;;;;;4.05;1.35;;;;;;;;;;4955689;29;20054;-76
2021/09/16 07:24:48;;;;;;;3.20;1.00;;;;;;;;;;4955510;28;20039;-76
2021/09/16 07:27:13;;;;;;;4.10;1.30;;;;;;;;;;4955848;28;20051;-76
2021/09/16 07:29:39;;;;;;;8.25;1.58;;;;;;;;;;4955341;28;20035;-76
2021/09/16 07:32:04;;;;;;;6.80;1.20;;;;;;;;;;4954289;29;20051;-76
2021/09/16 07:34:30;;;;;;;17.63;1.20;;;;;;;;;;4955741;28;20134;-76
2021/09/16 07:36:55;;;;;;;6.43;1.38;;;;;;;;;;4954563;29;20039;-76
2021/09/16 07:39:21;;;;;;;8.15;1.75;;;;;;;;;;4955008;28;20047;-76
2021/09/16 07:41:47;;;;;;;6.15;1.30;;;;;;;;;;4955678;28;20074;-76
2021/09/16 07:44:13;;;;;;;3.25;1.17;;;;;;;;;;4955415;28;20588;-76
2021/09/16 07:46:38;;;;;;;3.33;1.20;;;;;;;;;;4955561;28;20074;-76
2021/09/16 07:49:04;;;;;;;6.00;1.77;;;;;;;;;;4955465;28;20066;-76
2021/09/16 07:51:31;;;;;;;6.20;1.98;;;;;;;;;;4954281;28;20114;-76
2021/09/16 07:53:56;;;;;;;4.45;1.55;;;;;;;;;;4955375;28;20138;-76
2021/09/16 07:56:21;;;;;;;4.35;1.40;;;;;;;;;;4955306;28;20117;-76
2021/09/16 07:58:47;;;;;;;4.10;1.33;;;;;;;;;;4954103;28;20070;-76
2021/09/16 08:01:13;;;;;;;4.85;1.60;;;;;;;;;;4954189;28;20097;-76
2021/09/16 08:03:39;;;;;;;10.13;2.25;;;;;;;;;;4955269;28;20039;-76
2021/09/16 08:06:05;;;;;;;4.75;2.03;;;;;;;;;;4955323;29;20389;-76
2021/09/16 08:08:31;;;;;;;5.47;1.38;;;;;;;;;;4938147;29;20498;-76
2021/09/16 08:10:57;;;;;;;3.28;1.30;;;;;;;;;;4954854;28;20126;-76
2021/09/16 08:13:22;;;;;;;5.45;1.80;;;;;;;;;;4955182;28;20038;-76
2021/09/16 08:15:48;;;;;;;5.25;1.65;;;;;;;;;;4954749;28;20039;-76
2021/09/16 08:18:13;;;;;;;8.80;1.50;;;;;;;;;;4954744;29;20494;-76
2021/09/16 08:20:45;;;;;;;8.50;2.28;;;;;;;;;;4954759;28;20527;-76
2021/09/16 08:23:10;;;;;;;3.97;1.83;;;;;;;;;;4955134;28;20054;-76
2021/09/16 08:25:36;;;;;;;4.82;1.70;;;;;;;;;;4955102;28;20039;-76
2021/09/16 08:28:02;;;;;;;6.85;1.92;;;;;;;;;;4955091;28;20405;-76
2021/09/16 08:30:27;;;;;;;10.77;1.90;;;;;;;;;;4954922;28;20031;-76
2021/09/16 08:32:53;;;;;;;7.93;1.52;;;;;;;;;;4953612;28;20047;-76
2021/09/16 08:35:19;;;;;;;3.22;1.35;;;;;;;;;;4953930;29;20042;-76
2021/09/16 08:37:46;;;;;;;10.52;2.00;;;;;;;;;;4955116;28;20039;-76
2021/09/16 08:40:12;;;;;;;9.43;1.80;;;;;;;;;;4954818;28;20031;-76
2021/09/16 08:42:39;;;;;;;8.10;1.98;;;;;;;;;;4955936;28;20404;-76
2021/09/16 08:45:08;;;;;;;3.53;1.10;;;;;;;;;;4959213;29;20375;-76
2021/09/16 08:47:37;;;;;;;5.78;1.17;;;;;;;;;;4958838;28;20035;-76
2021/09/16 08:50:03;;;;;;;6.88;2.33;;;;;;;;;;4958782;28;20047;-76
2021/09/16 08:52:29;;;;;;;3.70;1.45;;;;;;;;;;4958684;28;20039;-76
2021/09/16 08:54:56;;;;;;;6.03;1.77;;;;;;;;;;4958485;28;20090;-76
2021/09/16 08:57:22;;;;;;;6.88;1.40;;;;;;;;;;4958627;28;20075;-76
2021/09/16 08:59:48;;;;;;;3.38;1.20;;;;;;;;;;4958403;28;20081;-76
2021/09/16 09:02:14;;;;;;;3.40;1.40;;;;;;;;;;4958787;28;20399;-76
2021/09/16 09:04:39;;;;;;;3.10;1.20;;;;;;;;;;4958557;28;20064;-76
2021/09/16 09:07:06;;;;;;;5.03;1.38;;;;;;;;;;4958536;28;20488;-77
2021/09/16 09:09:32;;;;;;;4.40;1.98;;;;;;;;;;4958217;28;20032;-77
2021/09/16 09:12:07;;;;;;;4.72;1.50;;;;;;;;;;4958470;28;20064;-77
2021/09/16 09:14:36;;;;;;;6.38;1.98;;;;;;;;;;4958408;28;20047;-77
2021/09/16 09:17:15;;;;;;;5.15;1.40;;;;;;;;;;4958155;28;20032;-76
2021/09/16 09:19:41;;;;;;;6.22;1.63;;;;;;;;;;4957736;28;20075;-76
2021/09/16 09:22:07;;;;;;;7.22;1.77;;;;;;;;;;4958155;28;20038;-76
2021/09/16 09:24:41;;;;;;;6.03;1.20;;;;;;;;;;4957906;28;20035;-76
2021/09/16 09:27:28;;;;;;;6.63;1.63;;;;;;;;;;4958037;28;20134;-76
2021/09/16 09:30:08;;;;;;;4.47;1.65;;;;;;;;;;4958170;28;20039;-76
2021/09/16 09:32:56;;;;;;;5.45;1.15;;;;;;;;;;4956363;29;20051;-76
2021/09/16 09:35:37;;;;;;;5.53;1.30;;;;;;;;;;4957771;28;20090;-76
2021/09/16 09:38:13;;;;;;;2.97;1.33;;;;;;;;;;4940970;29;20031;-76
2021/09/16 09:40:41;;;;;;;7.15;1.67;;;;;;;;;;4957734;28;20039;-76
2021/09/16 09:43:31;;;;;;;2.30;1.20;;;;;;;;;;4957460;28;20073;-76
2021/09/16 09:46:12;;;;;;;6.05;1.40;;;;;;;;;;4956991;28;20094;-76
2021/09/16 09:48:42;;;;;;;3.47;1.30;;;;;;;;;;4957372;28;20035;-76
2021/09/16 09:51:09;;;;;;;5.60;1.75;;;;;;;;;;4957276;28;20063;-76
2021/09/16 09:53:40;;;;;;;4.63;1.20;;;;;;;;;;4957117;28;20039;-76
2021/09/16 09:56:17;;;;;;;3.75;1.45;;;;;;;;;;4956216;29;20047;-76
2021/09/16 09:58:44;;;;;;;3.80;1.45;;;;;;;;;;4956384;29;20070;-76
2021/09/16 10:01:42;;;;;;;3.80;1.05;;;;;;;;;;4957572;28;20034;-76
2021/09/16 10:04:27;;;;;;;2.83;1.33;;;;;;;;;;4956390;29;20370;-76
2021/09/16 10:06:55;;;;;;;5.83;1.50;;;;;;;;;;4957316;28;20070;-76
2021/09/16 10:09:21;;;;;;;2.25;1.20;;;;;;;;;;4955286;28;20495;-76
2021/09/16 10:11:49;;;;;;;4.15;1.30;;;;;;;;;;4957105;28;20070;-76
2021/09/16 10:14:16;;;;;;;4.70;1.38;;;;;;;;;;4956926;28;20126;-76
2021/09/16 10:16:42;;;;;;;3.28;1.55;;;;;;;;;;4955995;28;20497;-75
2021/09/16 10:19:07;;;;;;;1.92;1.30;;;;;;;;;;4955561;28;20035;-76
2021/09/16 10:21:34;;;;;;;2.17;1.40;;;;;;;;;;4957098;28;20082;-76
2021/09/16 10:24:00;;;;;;;3.55;1.70;;;;;;;;;;4956999;28;20113;-76
2021/09/16 10:26:31;;;;;;;3.85;1.25;;;;;;;;;;4957055;28;20474;-77
2021/09/16 10:28:57;;;;;;;2.33;1.02;;;;;;;;;;4955739;28;20079;-76
2021/09/16 10:31:24;;;;;;;2.42;1.20;;;;;;;;;;4956738;28;20043;-76
2021/09/16 10:33:49;;;;;;;2.58;1.30;;;;;;;;;;4956990;28;20039;-76
2021/09/16 10:36:15;;;;;;;3.13;1.40;;;;;;;;;;4956932;28;20062;-76
2021/09/16 10:38:46;;;;;;;2.25;1.20;;;;;;;;;;4961496;28;20061;-78
2021/09/16 10:41:23;;;;;;;3.10;1.70;;;;;;;;;;4974896;28;20052;-77
2021/09/16 10:43:48;;;;;;;3.40;1.67;;;;;;;;;;4975824;28;20393;-77
2021/09/16 10:46:35;;;;;;;1.90;1.55;;;;;;;;;;4975747;28;20039;-76
2021/09/16 10:49:20;;;;;;;4.70;1.40;;;;;;;;;;4975725;28;20038;-77
2021/09/16 10:51:47;;;;;;;3.13;1.50;;;;;;;;;;4974571;28;20085;-76
2021/09/16 10:54:26;;;;;;;2.70;1.70;;;;;;;;;;4975816;28;20047;-76
2021/09/16 10:57:07;;;;;;;5.93;1.83;;;;;;;;;;4975874;28;20042;-76
2021/09/16 10:59:51;;;;;;;3.20;1.98;;;;;;;;;;4974499;28;20465;-77
2021/09/16 11:02:25;;;;;;;3.33;1.80;;;;;;;;;;4975615;28;20089;-76
2021/09/16 11:04:57;;;;;;;2.80;1.90;;;;;;;;;;4974894;28;20035;-76
2021/09/16 11:07:31;;;;;;;2.72;2.08;;;;;;;;;;4975652;28;20106;-76
2021/09/16 11:10:20;;;;;;;5.30;2.33;;;;;;;;;;4958676;28;20489;-76
2021/09/16 11:12:51;;;;;;;3.58;1.80;;;;;;;;;;4955191;28;20046;-76
2021/09/16 11:15:24;;;;;;;2.10;1.83;;;;;;;;;;4955126;29;20047;-77
2021/09/16 11:17:50;;;;;;;3.28;2.00;;;;;;;;;;4955011;28;20113;-75
2021/09/16 11:20:16;;;;;;;6.70;2.10;;;;;;;;;;4954933;28;20031;-78
2021/09/16 11:22:41;;;;;;;3.03;2.10;;;;;;;;;;4938819;29;20505;-75
2021/09/16 11:25:08;;;;;;;5.38;1.90;;;;;;;;;;4955873;28;20098;-76
2021/09/16 11:27:36;;;;;;;7.57;3.17;;;;;;;;;;4955884;28;20116;-76
2021/09/16 11:30:12;;;;;;;3.55;2.25;;;;;;;;;;4956054;28;20039;-77
2021/09/16 11:32:38;;;;;;;6.40;2.30;;;;;;;;;;4955728;29;20054;-76
2021/09/16 11:35:07;;;;;;;4.05;2.22;;;;;;;;;;4938270;29;20067;-77
2021/09/16 11:37:41;;;;;;;2.63;1.90;;;;;;;;;;4955121;28;20097;-77
2021/09/16 11:40:11;;;;;;;5.22;2.28;;;;;;;;;;4955620;28;20118;-76
2021/09/16 11:42:39;;;;;;;5.85;2.25;;;;;;;;;;4955583;29;20032;-76
2021/09/16 11:45:07;;;;;;;3.53;1.92;;;;;;;;;;4953291;29;20047;-76
2021/09/16 11:47:38;;;;;;;7.13;1.60;;;;;;;;;;4955501;28;20039;-76
2021/09/16 11:50:24;;;;;;;4.15;1.85;;;;;;;;;;4955441;28;20109;-76
2021/09/16 11:52:55;;;;;;;6.90;1.93;;;;;;;;;;4954173;28;20039;-77
2021/09/16 11:55:21;;;;;;;4.03;2.10;;;;;;;;;;4954980;28;20286;-77
2021/09/16 11:57:56;;;;;;;3.05;2.00;;;;;;;;;;4955224;28;20053;-77
2021/09/16 12:00:23;;;;;;;;;;;;;;;;;;4955615;28;20409;-77
2021/09/16 12:02:48;;;;;;;5.35;2.03;;;;;;;;;;4938046;28;19914;-77
2021/09/16 12:05:44;;;;;;;4.03;2.20;;;;;;;;;;4954254;28;20215;-76
2021/09/16 12:08:33;;;;;;;2.72;1.63;;;;;;;;;;4955223;28;20035;-77
2021/09/16 12:11:07;;;;;;;5.40;1.80;;;;;;;;;;4954923;28;20058;-76
2021/09/16 12:13:40;;;;;;;5.57;2.20;;;;;;;;;;4954510;28;20572;-77
2021/09/16 12:16:12;;;;;;;5.90;2.75;;;;;;;;;;4955194;28;20050;-77
2021/09/16 12:18:42;;;;;;;3.30;1.88;;;;;;;;;;4955116;28;20039;-76
2021/09/16 12:21:10;;;;;;;3.10;1.83;;;;;;;;;;4955127;28;20409;-77
2021/09/16 12:23:36;;;;;;;4.85;1.92;;;;;;;;;;4954851;28;20042;-76
2021/09/16 12:26:17;;;;;;;4.32;2.05;;;;;;;;;;4955267;28;20027;-74
2021/09/16 12:28:59;;;;;;;3.65;1.85;;;;;;;;;;4955165;28;20122;-75
2021/09/16 12:31:31;;;;;;;3.95;1.67;;;;;;;;;;4954663;28;20031;-74
2021/09/16 12:34:12;;;;;;;4.15;2.10;;;;;;;;;;4953768;28;20047;-75
2021/09/16 12:36:57;;;;;;;6.13;1.67;;;;;;;;;;4955057;29;20047;-75
2021/09/16 12:39:25;;;;;;;3.83;1.67;;;;;;;;;;4953458;28;20050;-75
2021/09/16 12:41:58;;;;;;;4.07;1.77;;;;;;;;;;4954921;28;20046;-75
2021/09/16 12:44:32;;;;;;;10.85;2.17;;;;;;;;;;4954800;28;20102;-75
2021/09/16 12:47:09;;;;;;;2.63;1.58;;;;;;;;;;4954925;28;20536;-75
2021/09/16 12:49:41;;;;;;;6.20;1.83;;;;;;;;;;4953602;28;20047;-75
2021/09/16 12:52:10;;;;;;;7.32;2.30;;;;;;;;;;4953759;29;20039;-75
2021/09/16 12:54:42;;;;;;;4.30;1.92;;;;;;;;;;4953688;29;20486;-75
2021/09/16 12:57:07;;;;;;;11.45;2.03;;;;;;;;;;4955029;28;20433;-74
2021/09/16 12:59:32;;;;;;;3.53;1.70;;;;;;;;;;4953649;28;20075;-76
2021/09/16 13:02:15;;;;;;;2.95;1.60;;;;;;;;;;4953605;29;20043;-77
2021/09/16 13:04:49;;;;;;;6.72;2.38;;;;;;;;;;4954623;28;20035;-76
2021/09/16 13:07:14;;;;;;;4.60;2.03;;;;;;;;;;4952857;28;20039;-76
2021/09/16 13:09:40;;;;;;;4.90;2.28;;;;;;;;;;4954747;28;20375;-77
2021/09/16 13:12:13;;;;;;;3.80;1.92;;;;;;;;;;4954734;28;20038;-77
2021/09/16 13:14:38;;;;;;;4.38;2.00;;;;;;;;;;4954535;29;20035;-74
2021/09/16 13:17:03;;;;;;;4.57;2.40;;;;;;;;;;4954796;29;20440;-76
2021/09/16 13:19:29;;;;;;;3.65;2.00;;;;;;;;;;4954315;28;20038;-76
2021/09/16 13:21:55;;;;;;;3.70;2.00;;;;;;;;;;4954418;28;20052;-77
2021/09/16 13:24:20;;;;;;;7.20;2.58;;;;;;;;;;4954552;28;20039;-76
2021/09/16 13:26:45;;;;;;;5.10;2.40;;;;;;;;;;4954698;28;20097;-76
2021/09/16 13:29:12;;;;;;;6.13;2.28;;;;;;;;;;4955175;28;20039;-76
2021/09/16 13:31:38;;;;;;;4.30;2.80;;;;;;;;;;4956842;29;20059;-76
2021/09/16 13:34:03;;;;;;;6.88;3.10;;;;;;;;;;4957364;28;20039;-76
2021/09/16 13:36:29;;;;;;;4.15;2.38;;;;;;;;;;4956696;29;20035;-77
2021/09/16 13:38:54;;;;;;;5.35;2.10;;;;;;;;;;4957685;28;20398;-76
2021/09/16 13:41:20;;;;;;;8.90;2.90;;;;;;;;;;4957369;28;20027;-76
2021/09/16 13:43:46;;;;;;;7.30;2.45;;;;;;;;;;4957828;28;20039;-77
2021/09/16 13:46:11;;;;;;;3.60;1.88;;;;;;;;;;4958017;28;20066;-77
2021/09/16 13:48:36;;;;;;;3.58;2.10;;;;;;;;;;4957570;29;20126;-76
2021/09/16 13:51:02;;;;;;;4.95;2.60;;;;;;;;;;4957295;28;20078;-77
2021/09/16 13:53:27;;;;;;;3.70;1.77;;;;;;;;;;4957656;28;20437;-76
2021/09/16 13:55:53;;;;;;;4.78;2.05;;;;;;;;;;4957787;28;20066;-76
2021/09/16 13:58:19;;;;;;;4.53;2.33;;;;;;;;;;4957555;28;20035;-76
2021/09/16 14:00:44;;;;;;;6.07;2.25;;;;;;;;;;4957494;28;20065;-76
2021/09/16 14:03:12;;;;;;;4.30;1.92;;;;;;;;;;4957503;28;20489;-76
2021/09/16 14:05:37;;;;;;;3.78;1.83;;;;;;;;;;4956186;28;20039;-76
2021/09/16 14:08:03;;;;;;;3.92;1.90;;;;;;;;;;4956246;29;20049;-77
2021/09/16 14:10:28;;;;;;;4.03;2.00;;;;;;;;;;4956069;28;20405;-76
2021/09/16 14:12:54;;;;;;;3.15;1.73;;;;;;;;;;4940083;29;20046;-74
2021/09/16 14:15:19;;;;;;;2.63;1.83;;;;;;;;;;4955521;28;20378;-74
2021/09/16 14:17:45;;;;;;;3.28;1.55;;;;;;;;;;4956009;29;20089;-74
2021/09/16 14:20:12;;;;;;;5.15;2.00;;;;;;;;;;4956867;28;20035;-74
2021/09/16 14:22:37;;;;;;;3.67;1.80;;;;;;;;;;4957213;28;20062;-74
2021/09/16 14:25:03;;;;;;;5.00;2.08;;;;;;;;;;4957000;28;20039;-74
2021/09/16 14:27:28;;;;;;;6.97;2.40;;;;;;;;;;4957192;29;20039;-74
2021/09/16 14:29:54;;;;;;;3.65;2.08;;;;;;;;;;4956933;28;20547;-76
2021/09/16 14:32:20;;;;;;;5.43;2.60;;;;;;;;;;4955740;29;20509;-76
2021/09/16 14:34:46;;;;;;;2.53;1.90;;;;;;;;;;4956686;28;20047;-76
2021/09/16 14:37:13;;;;;;;5.43;2.40;;;;;;;;;;4956883;29;20039;-76
2021/09/16 14:39:39;;;;;;;4.20;2.35;;;;;;;;;;4955973;28;20043;-76